• Join FlightAware (Why Join?)
  • Login
  • US Flag 
05:57AM EDT


 

Airport Tracker/Info


-or-


 

Live Flight TrackerFlight Track Log ✈ CSN6338 ✈ 21-Sep-2013 ✈ ZYTL / DLC - ZGSZ / SZX

Flight Track Log - Related Links

Times and Time Zones

All times are in EDT time to prevent confusion due to time zone crossing. See the CSN6338 flight status page for this flight to view local times or setup timezone preferences in your user account.

Time Position Orientation Groundspeed Altitude Reporting Facility
EDT Latitude Longitude Course Direction KTS MPH feet Rate Location/Type
07:15AM 38.8695 121.4830 204° Southwest  Level Estimated
07:16AM 38.7733 121.4276 204° Southwest  Level Estimated
07:17AM 38.6771 121.3724 204° Southwest  Level Estimated
07:18AM 38.5808 121.3173 204° Southwest  Level Estimated
07:19AM 38.4845 121.2623 204° Southwest  Level Estimated
07:20AM 38.3882 121.2075 204° Southwest  Level Estimated
07:21AM 38.2919 121.1528 204° Southwest  Level Estimated
07:22AM 38.1955 121.0983 204° Southwest  Level Estimated
07:23AM 38.0991 121.0439 204° Southwest  Level Estimated
07:24AM 38.0027 120.9897 204° Southwest  Level Estimated
07:25AM 37.9063 120.9356 204° Southwest  Level Estimated
07:26AM 37.8098 120.8816 204° Southwest  Level Estimated
07:27AM 37.7134 120.8278 204° Southwest  Level Estimated
07:28AM 37.6169 120.7741 204° Southwest  Level Estimated
07:29AM 37.5203 120.7206 204° Southwest  Level Estimated
07:30AM 37.4238 120.6672 204° Southwest  Level Estimated
07:31AM 37.3272 120.6139 204° Southwest  Level Estimated
07:32AM 37.2306 120.5608 204° Southwest  Level Estimated
07:33AM 37.1340 120.5078 204° Southwest  Level Estimated
07:34AM 37.0373 120.4550 204° Southwest  Level Estimated
07:35AM 36.9406 120.4022 204° Southwest  Level Estimated
07:36AM 36.8439 120.3497 204° Southwest  Level Estimated
07:37AM 36.7472 120.2972 203° Southwest  Level Estimated
07:38AM 36.6505 120.2449 203° Southwest  Level Estimated
07:39AM 36.5537 120.1927 203° Southwest  Level Estimated
07:40AM 36.4569 120.1406 203° Southwest  Level Estimated
07:41AM 36.3601 120.0887 203° Southwest  Level Estimated
07:42AM 36.2633 120.0369 203° Southwest  Level Estimated
07:43AM 36.1664 119.9852 203° Southwest  Level Estimated
07:44AM 36.0695 119.9337 203° Southwest  Level Estimated
07:45AM 35.9726 119.8823 203° Southwest  Level Estimated
07:46AM 35.8757 119.8310 203° Southwest  Level Estimated
07:47AM 35.7788 119.7798 203° Southwest  Level Estimated
07:48AM 35.6818 119.7288 203° Southwest  Level Estimated
07:49AM 35.5848 119.6779 203° Southwest  Level Estimated
07:50AM 35.4878 119.6271 203° Southwest  Level Estimated
07:51AM 35.3908 119.5764 203° Southwest  Level Estimated
07:52AM 35.2937 119.5259 203° Southwest  Level Estimated
07:53AM 35.1967 119.4754 203° Southwest  Level Estimated
07:54AM 35.0996 119.4251 203° Southwest  Level Estimated
07:55AM 35.0025 119.3749 203° Southwest  Level Estimated
07:56AM 34.9053 119.3249 203° Southwest  Level Estimated
07:57AM 34.8082 119.2749 203° Southwest  Level Estimated
07:58AM 34.7110 119.2251 203° Southwest  Level Estimated
07:59AM 34.6138 119.1754 203° Southwest  Level Estimated
08:00AM 34.5166 119.1258 203° Southwest  Level Estimated
08:01AM 34.4194 119.0763 203° Southwest  Level Estimated
08:02AM 34.3221 119.0269 203° Southwest  Level Estimated
08:03AM 34.2249 118.9777 203° Southwest  Level Estimated
08:04AM 34.1276 118.9285 203° Southwest  Level Estimated
08:05AM 34.0303 118.8795 203° Southwest  Level Estimated
08:06AM 33.9329 118.8306 203° Southwest  Level Estimated
08:07AM 33.8356 118.7818 203° Southwest  Level Estimated
08:08AM 33.7382 118.7331 203° Southwest  Level Estimated
08:09AM 33.6408 118.6845 203° Southwest  Level Estimated
08:10AM 33.5434 118.6360 203° Southwest  Level Estimated
08:11AM 33.4460 118.5877 203° Southwest  Level Estimated
08:12AM 33.3485 118.5394 202° Southwest  Level Estimated
08:13AM 33.2511 118.4913 202° Southwest  Level Estimated
08:14AM 33.1536 118.4433 202° Southwest  Level Estimated
08:15AM 33.0561 118.3953 202° Southwest  Level Estimated
08:16AM 32.9586 118.3475 202° Southwest  Level Estimated
08:17AM 32.8610 118.2998 202° Southwest  Level Estimated
08:18AM 32.7635 118.2522 202° Southwest  Level Estimated
08:19AM 32.6659 118.2046 202° Southwest  Level Estimated
08:20AM 32.5683 118.1572 202° Southwest  Level Estimated
08:21AM 32.4707 118.1099 202° Southwest  Level Estimated
08:22AM 32.3731 118.0627 202° Southwest  Level Estimated
08:23AM 32.2754 118.0156 202° Southwest  Level Estimated
08:24AM 32.1778 117.9686 202° Southwest  Level Estimated
08:25AM 32.0801 117.9217 202° Southwest  Level Estimated
08:26AM 31.9824 117.8749 202° Southwest  Level Estimated
08:27AM 31.8847 117.8282 202° Southwest  Level Estimated
08:28AM 31.7869 117.7816 202° Southwest  Level Estimated
08:29AM 31.6892 117.7351 202° Southwest  Level Estimated
08:30AM 31.5914 117.6887 202° Southwest  Level Estimated
08:31AM 31.4936 117.6424 202° Southwest  Level Estimated
08:32AM 31.3958 117.5962 202° Southwest  Level Estimated
08:33AM 31.2980 117.5501 202° Southwest  Level Estimated
08:34AM 31.2002 117.5041 202° Southwest  Level Estimated
08:35AM 31.1023 117.4582 202° Southwest  Level Estimated
08:36AM 31.0045 117.4123 202° Southwest  Level Estimated
08:37AM 30.9066 117.3666 202° Southwest  Level Estimated
08:38AM 30.8087 117.3210 202° Southwest  Level Estimated
08:39AM 30.7108 117.2754 202° Southwest  Level Estimated
08:40AM 30.6129 117.2299 202° Southwest  Level Estimated
08:41AM 30.5149 117.1846 202° Southwest  Level Estimated
08:42AM 30.4170 117.1393 202° Southwest  Level Estimated
08:43AM 30.3190 117.0941 202° Southwest  Level Estimated
08:44AM 30.2210 117.0490 202° Southwest  Level Estimated
08:45AM 30.1230 117.0041 202° Southwest  Level Estimated
08:46AM 30.0250 116.9591 202° Southwest  Level Estimated
08:47AM 29.9269 116.9143 202° Southwest  Level Estimated
08:48AM 29.8289 116.8696 202° Southwest  Level Estimated
08:49AM 29.7308 116.8249 202° Southwest  Level Estimated
08:50AM 29.6327 116.7804 202° Southwest  Level Estimated
08:51AM 29.5346 116.7359 202° Southwest  Level Estimated
08:52AM 29.4365 116.6915 202° Southwest  Level Estimated
08:53AM 29.3384 116.6472 201° Southwest  Level Estimated
08:54AM 29.2402 116.6030 201° Southwest  Level Estimated
08:55AM 29.1421 116.5589 201° Southwest  Level Estimated
08:56AM 29.0439 116.5148 201° Southwest  Level Estimated
08:57AM 28.9457 116.4708 201° Southwest  Level Estimated
08:58AM 28.8475 116.4270 201° Southwest  Level Estimated
08:59AM 28.7493 116.3832 201° Southwest  Level Estimated
09:00AM 28.6511 116.3394 201° Southwest  Level Estimated
09:01AM 28.5529 116.2958 201° Southwest  Level Estimated
09:02AM 28.4546 116.2523 201° Southwest  Level Estimated
09:03AM 28.3563 116.2088 201° Southwest  Level Estimated
09:04AM 28.2581 116.1654 201° Southwest  Level Estimated
09:05AM 28.1597 116.1221 201° Southwest  Level Estimated
09:06AM 28.0614 116.0789 201° Southwest  Level Estimated
09:07AM 27.9631 116.0357 201° Southwest  Level Estimated
09:08AM 27.8648 115.9927 201° Southwest  Level Estimated
09:09AM 27.7664 115.9497 201° Southwest  Level Estimated
09:10AM 27.6681 115.9067 201° Southwest  Level Estimated
09:11AM 27.5697 115.8639 201° Southwest  Level Estimated
09:12AM 27.4713 115.8211 201° Southwest  Level Estimated
09:13AM 27.3729 115.7784 201° Southwest  Level Estimated
09:14AM 27.2745 115.7358 201° Southwest  Level Estimated
09:15AM 27.1761 115.6933 201° Southwest  Level Estimated
09:16AM 27.0776 115.6508 201° Southwest  Level Estimated
09:17AM 26.9792 115.6084 201° Southwest  Level Estimated
09:18AM 26.8807 115.5661 201° Southwest  Level Estimated
09:19AM 26.7822 115.5239 201° Southwest  Level Estimated
09:20AM 26.6837 115.4817 201° Southwest  Level Estimated
09:21AM 26.5852 115.4396 201° Southwest  Level Estimated
09:22AM 26.4867 115.3976 201° Southwest  Level Estimated
09:23AM 26.3882 115.3557 201° Southwest  Level Estimated
09:24AM 26.2896 115.3138 201° Southwest  Level Estimated
09:25AM 26.1911 115.2720 201° Southwest  Level Estimated
09:26AM 26.0925 115.2302 201° Southwest  Level Estimated
09:27AM 25.9939 115.1886 201° Southwest  Level Estimated
09:28AM 25.8953 115.1470 201° Southwest  Level Estimated
09:29AM 25.7967 115.1054 201° Southwest  Level Estimated
09:30AM 25.6981 115.0640 201° Southwest  Level Estimated
09:31AM 25.5995 115.0226 201° Southwest  Level Estimated
09:32AM 25.5009 114.9813 201° Southwest  Level Estimated
09:33AM 25.4022 114.9400 201° Southwest  Level Estimated
09:34AM 25.3036 114.8988 201° Southwest  Level Estimated
09:35AM 25.2049 114.8577 201° Southwest  Level Estimated
09:36AM 25.1062 114.8167 201° Southwest  Level Estimated
09:37AM 25.0075 114.7757 201° Southwest  Level Estimated
09:38AM 24.9088 114.7347 201° Southwest  Level Estimated
09:39AM 24.8101 114.6939 201° Southwest  Level Estimated
09:40AM 24.7114 114.6531 201° Southwest  Level Estimated
09:41AM 24.6126 114.6124 201° Southwest  Level Estimated
09:42AM 24.5139 114.5717 201° Southwest  Level Estimated
09:43AM 24.4151 114.5311 201° Southwest  Level Estimated
09:44AM 24.3164 114.4906 201° Southwest  Level Estimated
09:45AM 24.2176 114.4501 200° South  Level Estimated
09:46AM 24.1188 114.4097 200° South  Level Estimated
09:47AM 24.0200 114.3694 200° South  Level Estimated
09:48AM 23.9212 114.3291 200° South  Level Estimated
09:49AM 23.8223 114.2889 200° South  Level Estimated
09:50AM 23.7235 114.2487 200° South  Level Estimated
09:51AM 23.6247 114.2086 200° South  Level Estimated
09:52AM 23.5258 114.1686 200° South  Level Estimated
09:53AM 23.4270 114.1286 200° South  Level Estimated
09:54AM 23.3281 114.0887 200° South  Level Estimated
09:55AM 23.2292 114.0488 200° South  Level Estimated
09:56AM 23.1303 114.0090 200° South  Level Estimated
09:57AM 23.0314 113.9693 200° South  Level Estimated
09:58AM 22.9325 113.9296 200° South  Level Estimated
09:59AM 22.8336 113.8900 200° South  Level Estimated
10:00AM 22.7346 113.8504 200° South  Level Estimated
10:01AM 22.6395 113.8124 200° South  Level Estimated
10:02AM 22.6395 113.8124 25° Northeast  Level Estimated
10:03AM 22.6395 113.8124 25° Northeast  Level Estimated
10:04AM 22.6395 113.8124 25° Northeast  Level Estimated
10:05AM 22.6395 113.8124 25° Northeast  Level Estimated
10:06AM 22.6395 113.8124 25° Northeast  Level Estimated
10:07AM 22.6395 113.8124 25° Northeast  Level Estimated
10:08AM 22.6395 113.8124 25° Northeast  Level Estimated
10:09AM 22.6395 113.8124 25° Northeast  Level Estimated
10:10AM 22.6395 113.8124 25° Northeast  Level Estimated
10:11AM 22.6395 113.8124 25° Northeast  Level Estimated
10:12AM 22.6395 113.8124 25° Northeast  Level Estimated